Las Lenas/Los Molles, Argentina
Current Conditions -  °F | °C
As of 6:00 PM on Thursday 18 Dec 2014 (Local Time) from SCIC Reporting Station
Clear Clear  
Wind Chill: 86°   Ceiling: Unl
Heat Index: 86°   Visibility: 6mi
Dew Point: 45°   Wind: 6mph
Humidity: 23%   Direction: 200°SSW
Pressure: 29.88"   Gusts: NA
Location:  34.97°S, 68.65°W
Report Text: SCIC 182100Z 20005KT CAVOK 30/07 Q1012
Loading
Personal Weather Stations






























Interactive Weather Map New forecast layout! Learn more

10-Day Weather Forecast

Advertisements
Track Severe Weather on mobile